sensor_id;sensor_type;location;lat;lon;timestamp;pressure;altitude;pressure_sealevel;temperature;humidity
28797;BME280;24974;54.444;18.560;2023-09-19T00:01:18;100211.63;;;26.31;47.76
28797;BME280;24974;54.444;18.560;2023-09-19T00:03:51;100205.44;;;25.31;50.30
28797;BME280;24974;54.444;18.560;2023-09-19T00:06:23;100208.59;;;25.67;49.39
28797;BME280;24974;54.444;18.560;2023-09-19T00:08:58;100208.13;;;25.73;48.85
28797;BME280;24974;54.444;18.560;2023-09-19T00:11:31;100206.69;;;26.38;47.63
28797;BME280;24974;54.444;18.560;2023-09-19T00:14:03;100205.19;;;26.07;48.15
28797;BME280;24974;54.444;18.560;2023-09-19T00:16:35;100215.41;;;25.66;49.04
28797;BME280;24974;54.444;18.560;2023-09-19T00:19:06;100207.88;;;25.60;49.12
28797;BME280;24974;54.444;18.560;2023-09-19T00:21:38;100219.25;;;25.53;49.34
28797;BME280;24974;54.444;18.560;2023-09-19T00:24:11;100210.78;;;25.53;49.64
28797;BME280;24974;54.444;18.560;2023-09-19T00:26:43;100206.25;;;24.94;51.09
28797;BME280;24974;54.444;18.560;2023-09-19T00:29:17;100205.59;;;25.51;49.91
28797;BME280;24974;54.444;18.560;2023-09-19T00:31:49;100213.28;;;25.47;50.10
28797;BME280;24974;54.444;18.560;2023-09-19T00:34:20;100204.38;;;26.06;48.55
28797;BME280;24974;54.444;18.560;2023-09-19T00:36:51;100208.22;;;25.92;48.94
28797;BME280;24974;54.444;18.560;2023-09-19T00:39:24;100212.22;;;25.95;48.71
28797;BME280;24974;54.444;18.560;2023-09-19T00:41:56;100208.97;;;25.66;49.73
28797;BME280;24974;54.444;18.560;2023-09-19T00:44:27;100205.72;;;25.71;49.51
28797;BME280;24974;54.444;18.560;2023-09-19T00:46:58;100206.13;;;25.08;51.14
28797;BME280;24974;54.444;18.560;2023-09-19T00:49:30;100209.50;;;25.88;49.15
28797;BME280;24974;54.444;18.560;2023-09-19T00:52:03;100200.69;;;25.28;51.21
28797;BME280;24974;54.444;18.560;2023-09-19T00:54:35;100213.22;;;25.81;50.08
28797;BME280;24974;54.444;18.560;2023-09-19T00:57:06;100216.34;;;25.56;50.51
28797;BME280;24974;54.444;18.560;2023-09-19T00:59:38;100210.50;;;25.74;50.13
28797;BME280;24974;54.444;18.560;2023-09-19T01:02:09;100197.97;;;25.48;50.92
28797;BME280;24974;54.444;18.560;2023-09-19T01:04:43;100188.06;;;25.40;51.17
28797;BME280;24974;54.444;18.560;2023-09-19T01:07:14;100186.06;;;24.69;53.42
28797;BME280;24974;54.444;18.560;2023-09-19T01:09:45;100177.41;;;24.90;52.83
28797;BME280;24974;54.444;18.560;2023-09-19T01:12:24;100174.47;;;24.67;53.63
28797;BME280;24974;54.444;18.560;2023-09-19T01:15:03;100189.66;;;24.28;55.04
28797;BME280;24974;54.444;18.560;2023-09-19T01:17:46;100186.53;;;25.35;52.40
28797;BME280;24974;54.444;18.560;2023-09-19T01:31:39;100159.47;;;25.15;53.72
28797;BME280;24974;54.444;18.560;2023-09-19T01:34:10;100169.63;;;24.71;54.92
28797;BME280;24974;54.444;18.560;2023-09-19T01:36:42;100156.22;;;25.16;53.91
28797;BME280;24974;54.444;18.560;2023-09-19T01:39:13;100168.16;;;25.54;52.56
28797;BME280;24974;54.444;18.560;2023-09-19T01:42:04;100175.47;;;25.21;53.59
28797;BME280;24974;54.444;18.560;2023-09-19T01:44:47;100170.72;;;24.80;55.42
28797;BME280;24974;54.444;18.560;2023-09-19T01:47:33;100178.44;;;24.69;55.83
28797;BME280;24974;54.444;18.560;2023-09-19T01:50:17;100178.44;;;25.07;55.27
28797;BME280;24974;54.444;18.560;2023-09-19T01:52:57;100189.63;;;24.35;56.88
28797;BME280;24974;54.444;18.560;2023-09-19T01:55:37;100187.94;;;24.82;56.29
28797;BME280;24974;54.444;18.560;2023-09-19T01:58:18;100190.50;;;24.25;57.77
28797;BME280;24974;54.444;18.560;2023-09-19T02:00:51;100181.44;;;24.89;56.16
28797;BME280;24974;54.444;18.560;2023-09-19T02:03:24;100175.69;;;24.21;58.21
28797;BME280;24974;54.444;18.560;2023-09-19T02:05:55;100173.78;;;24.55;57.00
28797;BME280;24974;54.444;18.560;2023-09-19T02:08:26;100162.53;;;24.14;58.17
28797;BME280;24974;54.444;18.560;2023-09-19T02:10:58;100164.06;;;24.19;58.12
28797;BME280;24974;54.444;18.560;2023-09-19T02:13:30;100166.31;;;24.38;57.29
28797;BME280;24974;54.444;18.560;2023-09-19T02:16:02;100166.03;;;24.25;57.69
28797;BME280;24974;54.444;18.560;2023-09-19T02:18:35;100167.06;;;23.97;58.55
28797;BME280;24974;54.444;18.560;2023-09-19T02:21:06;100154.84;;;24.18;57.39
28797;BME280;24974;54.444;18.560;2023-09-19T02:23:44;100148.94;;;24.09;57.84
28797;BME280;24974;54.444;18.560;2023-09-19T02:26:17;100163.44;;;23.97;58.00
28797;BME280;24974;54.444;18.560;2023-09-19T02:28:49;100157.88;;;24.42;56.77
28797;BME280;24974;54.444;18.560;2023-09-19T02:31:20;100144.06;;;24.13;57.51
28797;BME280;24974;54.444;18.560;2023-09-19T02:33:51;100144.56;;;24.46;56.29
28797;BME280;24974;54.444;18.560;2023-09-19T02:36:22;100142.03;;;24.59;55.65
28797;BME280;24974;54.444;18.560;2023-09-19T02:38:54;100143.13;;;24.31;55.98
28797;BME280;24974;54.444;18.560;2023-09-19T02:41:25;100139.38;;;24.48;55.39
28797;BME280;24974;54.444;18.560;2023-09-19T02:43:56;100141.31;;;24.54;55.23
28797;BME280;24974;54.444;18.560;2023-09-19T02:46:27;100132.03;;;24.16;55.86
28797;BME280;24974;54.444;18.560;2023-09-19T02:48:58;100135.06;;;23.91;56.49
28797;BME280;24974;54.444;18.560;2023-09-19T02:51:29;100133.03;;;24.37;55.49
28797;BME280;24974;54.444;18.560;2023-09-19T02:54:01;100120.06;;;24.09;56.26
28797;BME280;24974;54.444;18.560;2023-09-19T02:56:34;100118.31;;;24.22;56.00
28797;BME280;24974;54.444;18.560;2023-09-19T02:59:06;100121.72;;;24.44;55.21
28797;BME280;24974;54.444;18.560;2023-09-19T03:01:38;100117.56;;;24.59;54.97
28797;BME280;24974;54.444;18.560;2023-09-19T03:04:09;100123.13;;;24.97;53.89
28797;BME280;24974;54.444;18.560;2023-09-19T03:06:42;100127.81;;;23.94;56.57
28797;BME280;24974;54.444;18.560;2023-09-19T03:09:13;100123.78;;;23.95;57.08
28797;BME280;24974;54.444;18.560;2023-09-19T03:11:44;100122.22;;;24.73;54.75
28797;BME280;24974;54.444;18.560;2023-09-19T03:14:17;100109.63;;;23.57;58.09
28797;BME280;24974;54.444;18.560;2023-09-19T03:16:51;100117.25;;;24.50;55.53
28797;BME280;24974;54.444;18.560;2023-09-19T03:19:23;100112.19;;;24.72;55.11
28797;BME280;24974;54.444;18.560;2023-09-19T03:21:55;100115.06;;;24.27;56.43
28797;BME280;24974;54.444;18.560;2023-09-19T03:24:29;100110.28;;;24.62;55.71
28797;BME280;24974;54.444;18.560;2023-09-19T03:27:01;100102.59;;;24.32;56.15
28797;BME280;24974;54.444;18.560;2023-09-19T03:29:32;100114.88;;;24.07;57.08
28797;BME280;24974;54.444;18.560;2023-09-19T03:32:04;100109.19;;;24.86;55.09
28797;BME280;24974;54.444;18.560;2023-09-19T03:34:37;100105.19;;;24.87;54.88
28797;BME280;24974;54.444;18.560;2023-09-19T03:37:13;100106.25;;;24.97;54.56
28797;BME280;24974;54.444;18.560;2023-09-19T03:39:44;100100.91;;;24.75;55.33
28797;BME280;24974;54.444;18.560;2023-09-19T03:42:15;100105.41;;;25.00;54.78
28797;BME280;24974;54.444;18.560;2023-09-19T03:44:46;100115.59;;;25.21;54.53
28797;BME280;24974;54.444;18.560;2023-09-19T03:47:17;100106.34;;;24.90;55.58
28797;BME280;24974;54.444;18.560;2023-09-19T03:49:48;100104.69;;;24.92;55.80
28797;BME280;24974;54.444;18.560;2023-09-19T03:52:20;100108.63;;;24.68;56.65
28797;BME280;24974;54.444;18.560;2023-09-19T03:54:51;100098.63;;;24.25;58.11
28797;BME280;24974;54.444;18.560;2023-09-19T03:57:22;100098.63;;;24.25;58.25
28797;BME280;24974;54.444;18.560;2023-09-19T03:59:53;100088.19;;;23.85;59.81
28797;BME280;24974;54.444;18.560;2023-09-19T04:02:24;100094.56;;;24.34;58.01
28797;BME280;24974;54.444;18.560;2023-09-19T04:04:56;100088.28;;;24.57;57.54
28797;BME280;24974;54.444;18.560;2023-09-19T04:07:27;100098.19;;;24.68;57.57
28797;BME280;24974;54.444;18.560;2023-09-19T04:09:59;100092.47;;;24.75;57.38
28797;BME280;24974;54.444;18.560;2023-09-19T04:12:31;100083.38;;;24.26;58.67
28797;BME280;24974;54.444;18.560;2023-09-19T04:15:04;100076.28;;;24.52;58.28
28797;BME280;24974;54.444;18.560;2023-09-19T04:17:35;100074.81;;;24.75;57.65
28797;BME280;24974;54.444;18.560;2023-09-19T04:20:07;100072.56;;;24.63;58.17
28797;BME280;24974;54.444;18.560;2023-09-19T04:22:38;100076.16;;;24.25;59.56
28797;BME280;24974;54.444;18.560;2023-09-19T04:25:10;100076.66;;;24.17;59.91
28797;BME280;24974;54.444;18.560;2023-09-19T04:27:40;100072.41;;;23.98;60.30
28797;BME280;24974;54.444;18.560;2023-09-19T04:30:14;100075.06;;;24.16;60.11
28797;BME280;24974;54.444;18.560;2023-09-19T04:32:47;100072.53;;;23.87;60.96
28797;BME280;24974;54.444;18.560;2023-09-19T04:35:21;100081.00;;;23.28;63.50
28797;BME280;24974;54.444;18.560;2023-09-19T04:37:52;100087.53;;;23.04;63.82
28797;BME280;24974;54.444;18.560;2023-09-19T04:40:23;100090.16;;;23.32;63.09
28797;BME280;24974;54.444;18.560;2023-09-19T04:42:57;100093.25;;;23.49;62.67
28797;BME280;24974;54.444;18.560;2023-09-19T04:45:28;100086.97;;;22.46;66.13
28797;BME280;24974;54.444;18.560;2023-09-19T04:47:59;100091.59;;;22.92;64.47
28797;BME280;24974;54.444;18.560;2023-09-19T04:50:30;100095.38;;;22.36;66.47
28797;BME280;24974;54.444;18.560;2023-09-19T04:53:01;100096.38;;;22.99;65.05
28797;BME280;24974;54.444;18.560;2023-09-19T04:55:33;100099.78;;;22.29;66.89
28797;BME280;24974;54.444;18.560;2023-09-19T04:58:04;100105.81;;;21.85;68.57
28797;BME280;24974;54.444;18.560;2023-09-19T05:00:36;100117.78;;;22.28;67.54
28797;BME280;24974;54.444;18.560;2023-09-19T05:03:07;100119.03;;;22.17;67.77
28797;BME280;24974;54.444;18.560;2023-09-19T05:05:39;100109.78;;;22.34;67.04
28797;BME280;24974;54.444;18.560;2023-09-19T05:08:13;100115.41;;;21.81;68.92
28797;BME280;24974;54.444;18.560;2023-09-19T05:10:45;100123.38;;;21.64;69.40
28797;BME280;24974;54.444;18.560;2023-09-19T05:13:16;100124.22;;;22.15;68.28
28797;BME280;24974;54.444;18.560;2023-09-19T05:15:49;100136.59;;;22.06;68.80
28797;BME280;24974;54.444;18.560;2023-09-19T05:18:20;100132.69;;;20.71;73.79
28797;BME280;24974;54.444;18.560;2023-09-19T05:20:52;100135.00;;;22.20;68.22
28797;BME280;24974;54.444;18.560;2023-09-19T05:23:25;100119.38;;;22.04;69.29
28797;BME280;24974;54.444;18.560;2023-09-19T05:25:58;100110.59;;;21.81;70.81
28797;BME280;24974;54.444;18.560;2023-09-19T05:28:30;100099.03;;;21.83;70.69
28797;BME280;24974;54.444;18.560;2023-09-19T05:31:02;100109.75;;;22.55;67.63
28797;BME280;24974;54.444;18.560;2023-09-19T05:33:33;100119.81;;;22.24;69.08
28797;BME280;24974;54.444;18.560;2023-09-19T05:36:04;100121.38;;;22.47;68.30
28797;BME280;24974;54.444;18.560;2023-09-19T05:38:35;100124.63;;;22.17;69.08
28797;BME280;24974;54.444;18.560;2023-09-19T05:41:06;100138.16;;;22.43;68.15
28797;BME280;24974;54.444;18.560;2023-09-19T05:43:39;100133.38;;;21.69;70.90
28797;BME280;24974;54.444;18.560;2023-09-19T05:46:11;100135.78;;;22.38;68.74
28797;BME280;24974;54.444;18.560;2023-09-19T05:48:42;100132.59;;;22.04;69.01
28797;BME280;24974;54.444;18.560;2023-09-19T05:51:15;100128.19;;;21.67;70.81
28797;BME280;24974;54.444;18.560;2023-09-19T05:53:48;100122.59;;;21.82;70.25
28797;BME280;24974;54.444;18.560;2023-09-19T05:56:19;100127.38;;;21.95;69.72
28797;BME280;24974;54.444;18.560;2023-09-19T05:58:50;100117.72;;;22.57;67.80
28797;BME280;24974;54.444;18.560;2023-09-19T06:01:22;100115.41;;;22.02;69.86
28797;BME280;24974;54.444;18.560;2023-09-19T06:03:53;100129.41;;;22.09;69.45
28797;BME280;24974;54.444;18.560;2023-09-19T06:06:24;100130.44;;;22.83;66.99
28797;BME280;24974;54.444;18.560;2023-09-19T06:08:55;100134.91;;;22.63;67.55
28797;BME280;24974;54.444;18.560;2023-09-19T06:11:26;100136.22;;;22.08;69.40
28797;BME280;24974;54.444;18.560;2023-09-19T06:13:58;100132.97;;;22.34;68.76
28797;BME280;24974;54.444;18.560;2023-09-19T06:16:31;100125.41;;;21.78;70.83
28797;BME280;24974;54.444;18.560;2023-09-19T06:19:05;100117.72;;;22.53;68.02
28797;BME280;24974;54.444;18.560;2023-09-19T06:21:39;100122.22;;;22.15;69.11
28797;BME280;24974;54.444;18.560;2023-09-19T06:24:10;100126.19;;;22.07;69.30
28797;BME280;24974;54.444;18.560;2023-09-19T06:26:42;100136.97;;;22.37;69.23
28797;BME280;24974;54.444;18.560;2023-09-19T06:29:15;100134.91;;;22.59;68.69
28797;BME280;24974;54.444;18.560;2023-09-19T06:31:46;100143.81;;;22.15;69.28
28797;BME280;24974;54.444;18.560;2023-09-19T06:34:17;100142.97;;;22.36;69.55
28797;BME280;24974;54.444;18.560;2023-09-19T06:36:49;100152.09;;;22.61;68.79
28797;BME280;24974;54.444;18.560;2023-09-19T06:39:20;100146.41;;;23.00;67.44
28797;BME280;24974;54.444;18.560;2023-09-19T06:41:53;100135.63;;;22.84;67.64
28797;BME280;24974;54.444;18.560;2023-09-19T06:44:24;100147.78;;;22.39;69.50
28797;BME280;24974;54.444;18.560;2023-09-19T06:46:55;100142.50;;;22.73;68.11
28797;BME280;24974;54.444;18.560;2023-09-19T06:49:26;100142.06;;;22.78;67.47
28797;BME280;24974;54.444;18.560;2023-09-19T06:51:58;100145.00;;;22.14;70.32
28797;BME280;24974;54.444;18.560;2023-09-19T06:54:29;100150.97;;;22.33;69.21
28797;BME280;24974;54.444;18.560;2023-09-19T06:57:02;100150.75;;;23.12;66.93
28797;BME280;24974;54.444;18.560;2023-09-19T06:59:33;100142.94;;;22.57;68.04
28797;BME280;24974;54.444;18.560;2023-09-19T07:02:04;100146.13;;;22.52;68.56
28797;BME280;24974;54.444;18.560;2023-09-19T07:04:36;100155.44;;;23.99;63.42
28797;BME280;24974;54.444;18.560;2023-09-19T07:07:07;100152.97;;;23.45;65.00
28797;BME280;24974;54.444;18.560;2023-09-19T07:09:39;100153.13;;;23.17;66.28
28797;BME280;24974;54.444;18.560;2023-09-19T07:12:10;100147.81;;;23.96;63.78
28797;BME280;24974;54.444;18.560;2023-09-19T07:14:42;100155.25;;;24.62;61.63
28797;BME280;24974;54.444;18.560;2023-09-19T07:17:13;100153.41;;;23.44;64.12
28797;BME280;24974;54.444;18.560;2023-09-19T07:19:49;100150.91;;;23.60;64.18
28797;BME280;24974;54.444;18.560;2023-09-19T07:22:21;100154.91;;;24.15;62.45
28797;BME280;24974;54.444;18.560;2023-09-19T07:24:51;100153.69;;;23.67;64.39
28797;BME280;24974;54.444;18.560;2023-09-19T07:27:22;100151.72;;;24.54;61.46
28797;BME280;24974;54.444;18.560;2023-09-19T07:29:53;100157.03;;;24.00;63.02
28797;BME280;24974;54.444;18.560;2023-09-19T07:32:24;100147.31;;;23.53;64.88
28797;BME280;24974;54.444;18.560;2023-09-19T07:34:55;100151.00;;;23.39;65.14
28797;BME280;24974;54.444;18.560;2023-09-19T07:37:26;100153.28;;;24.14;62.60
28797;BME280;24974;54.444;18.560;2023-09-19T07:39:57;100161.38;;;24.08;62.35
28797;BME280;24974;54.444;18.560;2023-09-19T07:42:28;100165.72;;;24.13;61.95
28797;BME280;24974;54.444;18.560;2023-09-19T07:44:59;100172.59;;;23.45;63.96
28797;BME280;24974;54.444;18.560;2023-09-19T07:47:30;100172.84;;;23.76;63.59
28797;BME280;24974;54.444;18.560;2023-09-19T07:50:03;100176.63;;;24.04;62.90
28797;BME280;24974;54.444;18.560;2023-09-19T07:52:34;100172.75;;;23.90;62.47
28797;BME280;24974;54.444;18.560;2023-09-19T07:55:06;100179.53;;;24.41;61.05
28797;BME280;24974;54.444;18.560;2023-09-19T07:57:45;100169.59;;;24.29;61.51
28797;BME280;24974;54.444;18.560;2023-09-19T08:00:17;100173.13;;;23.89;62.26
28797;BME280;24974;54.444;18.560;2023-09-19T08:02:48;100181.97;;;23.87;61.74
28797;BME280;24974;54.444;18.560;2023-09-19T08:05:19;100181.22;;;24.28;61.04
28797;BME280;24974;54.444;18.560;2023-09-19T08:07:51;100171.56;;;24.36;61.08
28797;BME280;24974;54.444;18.560;2023-09-19T08:10:23;100173.97;;;23.20;63.81
28797;BME280;24974;54.444;18.560;2023-09-19T08:12:55;100173.78;;;24.55;60.40
28797;BME280;24974;54.444;18.560;2023-09-19T08:15:29;100176.00;;;24.34;60.86
28797;BME280;24974;54.444;18.560;2023-09-19T08:18:00;100187.19;;;24.41;60.49
28797;BME280;24974;54.444;18.560;2023-09-19T08:20:31;100185.13;;;24.82;59.38
28797;BME280;24974;54.444;18.560;2023-09-19T08:23:02;100204.53;;;24.25;60.79
28797;BME280;24974;54.444;18.560;2023-09-19T08:25:34;100184.31;;;24.44;60.36
28797;BME280;24974;54.444;18.560;2023-09-19T08:28:05;100203.50;;;24.05;61.22
28797;BME280;24974;54.444;18.560;2023-09-19T08:30:39;100200.63;;;25.89;55.93
28797;BME280;24974;54.444;18.560;2023-09-19T08:33:11;100212.19;;;25.68;55.67
28797;BME280;24974;54.444;18.560;2023-09-19T08:35:42;100212.56;;;25.39;54.00
28797;BME280;24974;54.444;18.560;2023-09-19T08:38:14;100208.34;;;25.24;55.69
28797;BME280;24974;54.444;18.560;2023-09-19T08:40:45;100205.50;;;26.36;53.32
28797;BME280;24974;54.444;18.560;2023-09-19T08:43:15;100212.84;;;26.76;52.53
28797;BME280;24974;54.444;18.560;2023-09-19T08:45:46;100209.16;;;26.09;53.07
28797;BME280;24974;54.444;18.560;2023-09-19T08:48:23;100223.91;;;25.63;53.96
28797;BME280;24974;54.444;18.560;2023-09-19T08:51:03;100217.03;;;25.94;53.42
28797;BME280;24974;54.444;18.560;2023-09-19T08:53:52;100227.22;;;27.06;51.16
28797;BME280;24974;54.444;18.560;2023-09-19T08:56:26;100232.22;;;26.51;50.40
28797;BME280;24974;54.444;18.560;2023-09-19T08:59:00;100223.00;;;26.00;52.67
28797;BME280;24974;54.444;18.560;2023-09-19T09:01:33;100224.78;;;26.14;51.96
28797;BME280;24974;54.444;18.560;2023-09-19T09:04:08;100230.06;;;25.85;51.24
28797;BME280;24974;54.444;18.560;2023-09-19T09:06:41;100227.63;;;25.87;50.99
28797;BME280;24974;54.444;18.560;2023-09-19T09:09:15;100223.38;;;26.26;50.10
28797;BME280;24974;54.444;18.560;2023-09-19T09:11:48;100234.94;;;25.50;51.95
28797;BME280;24974;54.444;18.560;2023-09-19T09:14:23;100236.44;;;25.28;51.82
28797;BME280;24974;54.444;18.560;2023-09-19T09:16:55;100235.19;;;25.90;49.45
28797;BME280;24974;54.444;18.560;2023-09-19T09:19:30;100240.97;;;26.06;49.56
28797;BME280;24974;54.444;18.560;2023-09-19T09:22:09;100239.00;;;26.07;50.06
28797;BME280;24974;54.444;18.560;2023-09-19T09:24:58;100235.47;;;26.73;48.16
28797;BME280;24974;54.444;18.560;2023-09-19T09:27:29;100243.56;;;26.20;49.69
28797;BME280;24974;54.444;18.560;2023-09-19T09:30:00;100248.53;;;26.13;48.88
28797;BME280;24974;54.444;18.560;2023-09-19T09:32:31;100246.47;;;25.90;50.12
28797;BME280;24974;54.444;18.560;2023-09-19T09:35:08;100244.91;;;26.12;48.49
28797;BME280;24974;54.444;18.560;2023-09-19T09:37:43;100254.19;;;25.86;48.93
28797;BME280;24974;54.444;18.560;2023-09-19T09:40:14;100261.13;;;26.05;48.66
28797;BME280;24974;54.444;18.560;2023-09-19T09:42:45;100260.16;;;25.88;48.24
28797;BME280;24974;54.444;18.560;2023-09-19T09:45:21;100253.31;;;26.43;47.56
28797;BME280;24974;54.444;18.560;2023-09-19T09:48:07;100258.59;;;26.64;46.42
28797;BME280;24974;54.444;18.560;2023-09-19T09:50:48;100271.56;;;27.01;45.76
28797;BME280;24974;54.444;18.560;2023-09-19T09:53:27;100260.19;;;27.68;44.11
28797;BME280;24974;54.444;18.560;2023-09-19T09:56:06;100259.47;;;29.40;41.01
28797;BME280;24974;54.444;18.560;2023-09-19T09:58:57;100258.66;;;30.57;38.78
28797;BME280;24974;54.444;18.560;2023-09-19T10:01:46;100280.41;;;29.30;41.45
28797;BME280;24974;54.444;18.560;2023-09-19T10:04:31;100278.66;;;28.74;41.67
28797;BME280;24974;54.444;18.560;2023-09-19T10:07:06;100289.81;;;26.97;45.44
28797;BME280;24974;54.444;18.560;2023-09-19T10:09:45;100285.31;;;26.02;47.48
28797;BME280;24974;54.444;18.560;2023-09-19T10:12:19;100282.91;;;25.70;48.10
28797;BME280;24974;54.444;18.560;2023-09-19T10:14:52;100280.56;;;24.93;50.19
28797;BME280;24974;54.444;18.560;2023-09-19T10:17:24;100288.50;;;25.74;48.86
28797;BME280;24974;54.444;18.560;2023-09-19T10:19:57;100301.84;;;24.94;49.15
28797;BME280;24974;54.444;18.560;2023-09-19T10:22:29;100298.91;;;25.08;48.33
28797;BME280;24974;54.444;18.560;2023-09-19T10:25:04;100296.66;;;25.30;47.72
28797;BME280;24974;54.444;18.560;2023-09-19T10:27:38;100297.53;;;27.56;42.54
28797;BME280;24974;54.444;18.560;2023-09-19T10:30:10;100298.44;;;28.74;39.74
28797;BME280;24974;54.444;18.560;2023-09-19T10:32:42;100298.44;;;27.10;41.59
28797;BME280;24974;54.444;18.560;2023-09-19T10:35:14;100301.00;;;27.83;40.53
28797;BME280;24974;54.444;18.560;2023-09-19T10:37:47;100294.78;;;27.32;41.84
28797;BME280;24974;54.444;18.560;2023-09-19T10:40:20;100313.41;;;28.06;38.78
28797;BME280;24974;54.444;18.560;2023-09-19T10:43:04;100298.41;;;28.09;38.84
28797;BME280;24974;54.444;18.560;2023-09-19T10:45:35;100302.44;;;29.51;36.85
28797;BME280;24974;54.444;18.560;2023-09-19T10:48:09;100295.41;;;29.85;36.78
28797;BME280;24974;54.444;18.560;2023-09-19T10:50:50;100297.91;;;28.95;37.84
28797;BME280;24974;54.444;18.560;2023-09-19T10:53:22;100297.66;;;28.74;38.59
28797;BME280;24974;54.444;18.560;2023-09-19T10:55:57;100305.28;;;29.22;38.66
28797;BME280;24974;54.444;18.560;2023-09-19T10:58:31;100304.50;;;29.21;37.16
28797;BME280;24974;54.444;18.560;2023-09-19T11:01:10;100316.41;;;30.13;35.69
28797;BME280;24974;54.444;18.560;2023-09-19T11:04:30;100320.66;;;29.79;36.47
28797;BME280;24974;54.444;18.560;2023-09-19T11:07:12;100324.66;;;29.52;37.36
28797;BME280;24974;54.444;18.560;2023-09-19T11:26:45;100318.03;;;29.14;37.25
28797;BME280;24974;54.444;18.560;2023-09-19T11:29:28;100318.09;;;28.49;38.09
28797;BME280;24974;54.444;18.560;2023-09-19T11:32:01;100323.94;;;28.22;38.78
28797;BME280;24974;54.444;18.560;2023-09-19T11:40:12;100314.09;;;27.54;40.24
28797;BME280;24974;54.444;18.560;2023-09-19T11:42:50;100319.81;;;27.50;39.52
28797;BME280;24974;54.444;18.560;2023-09-19T11:48:18;100323.09;;;28.05;39.07
28797;BME280;24974;54.444;18.560;2023-09-19T11:50:51;100333.25;;;27.43;40.65
28797;BME280;24974;54.444;18.560;2023-09-19T11:53:24;100343.13;;;26.37;43.71
28797;BME280;24974;54.444;18.560;2023-09-19T11:56:05;100328.78;;;26.01;44.15
28797;BME280;24974;54.444;18.560;2023-09-19T11:58:38;100358.28;;;27.21;42.53
28797;BME280;24974;54.444;18.560;2023-09-19T12:01:16;100357.53;;;26.16;44.33
28797;BME280;24974;54.444;18.560;2023-09-19T12:03:54;100353.22;;;27.12;42.51
28797;BME280;24974;54.444;18.560;2023-09-19T12:06:26;100359.63;;;26.39;43.13
28797;BME280;24974;54.444;18.560;2023-09-19T12:08:58;100368.63;;;26.81;42.62
28797;BME280;24974;54.444;18.560;2023-09-19T12:11:30;100364.34;;;26.96;41.94
28797;BME280;24974;54.444;18.560;2023-09-19T12:14:06;100364.63;;;25.63;44.61
28797;BME280;24974;54.444;18.560;2023-09-19T12:16:37;100367.88;;;25.58;44.39
28797;BME280;24974;54.444;18.560;2023-09-19T12:19:19;100373.28;;;25.04;45.08
28797;BME280;24974;54.444;18.560;2023-09-19T12:21:57;100376.81;;;26.17;42.84
28797;BME280;24974;54.444;18.560;2023-09-19T12:24:30;100378.75;;;25.93;43.03
28797;BME280;24974;54.444;18.560;2023-09-19T12:27:03;100380.47;;;26.14;42.72
28797;BME280;24974;54.444;18.560;2023-09-19T12:29:43;100396.84;;;27.91;39.50
28797;BME280;24974;54.444;18.560;2023-09-19T12:32:15;100388.59;;;28.88;37.36
28797;BME280;24974;54.444;18.560;2023-09-19T12:34:52;100389.78;;;27.39;40.45
28797;BME280;24974;54.444;18.560;2023-09-19T12:37:26;100397.84;;;28.20;39.38
28797;BME280;24974;54.444;18.560;2023-09-19T12:40:08;100404.06;;;28.84;37.97
28797;BME280;24974;54.444;18.560;2023-09-19T12:42:53;100403.47;;;31.49;32.76
28797;BME280;24974;54.444;18.560;2023-09-19T12:45:26;100394.78;;;32.09;31.74
28797;BME280;24974;54.444;18.560;2023-09-19T12:51:10;100396.34;;;30.84;31.86
28797;BME280;24974;54.444;18.560;2023-09-19T12:53:44;100393.63;;;30.93;33.00
28797;BME280;24974;54.444;18.560;2023-09-19T12:56:17;100401.72;;;33.92;27.82
28797;BME280;24974;54.444;18.560;2023-09-19T12:58:51;100412.50;;;33.43;28.60
28797;BME280;24974;54.444;18.560;2023-09-19T13:01:25;100413.47;;;30.17;32.87
28797;BME280;24974;54.444;18.560;2023-09-19T13:04:20;100408.31;;;28.92;34.14
28797;BME280;24974;54.444;18.560;2023-09-19T13:07:00;100411.38;;;28.49;35.75
28797;BME280;24974;54.444;18.560;2023-09-19T13:09:35;100402.97;;;28.25;35.54
28797;BME280;24974;54.444;18.560;2023-09-19T13:15:10;100406.56;;;28.46;35.24
28797;BME280;24974;54.444;18.560;2023-09-19T13:17:44;100410.59;;;28.64;35.02
28797;BME280;24974;54.444;18.560;2023-09-19T13:20:26;100400.56;;;29.41;34.13
28797;BME280;24974;54.444;18.560;2023-09-19T13:23:00;100403.84;;;29.40;33.52
28797;BME280;24974;54.444;18.560;2023-09-19T13:25:37;100398.66;;;28.73;34.12
28797;BME280;24974;54.444;18.560;2023-09-19T13:28:10;100394.78;;;28.67;34.45
28797;BME280;24974;54.444;18.560;2023-09-19T13:30:41;100400.03;;;31.88;30.15
28797;BME280;24974;54.444;18.560;2023-09-19T13:33:14;100399.59;;;31.21;30.84
28797;BME280;24974;54.444;18.560;2023-09-19T13:35:51;100408.31;;;29.70;32.34
28797;BME280;24974;54.444;18.560;2023-09-19T13:38:23;100400.28;;;30.10;32.17
28797;BME280;24974;54.444;18.560;2023-09-19T13:40:54;100399.53;;;28.18;35.37
28797;BME280;24974;54.444;18.560;2023-09-19T13:43:24;100410.19;;;29.89;32.67
28797;BME280;24974;54.444;18.560;2023-09-19T13:45:55;100414.19;;;32.01;29.70
28797;BME280;24974;54.444;18.560;2023-09-19T13:48:28;100411.22;;;31.48;30.23
28797;BME280;24974;54.444;18.560;2023-09-19T13:51:01;100425.69;;;31.63;30.09
28797;BME280;24974;54.444;18.560;2023-09-19T13:53:32;100427.38;;;34.11;26.65
28797;BME280;24974;54.444;18.560;2023-09-19T13:56:02;100424.59;;;32.26;28.60